sensor_id;sensor_type;location;lat;lon;timestamp;temperature;humidity
15638;DHT22;26604;53.596;10.042;2023-04-24T00:01:08;19.60;99.90
15638;DHT22;26604;53.596;10.042;2023-04-24T00:03:36;19.60;99.90
15638;DHT22;26604;53.596;10.042;2023-04-24T00:06:04;19.60;99.90
15638;DHT22;26604;53.596;10.042;2023-04-24T00:08:32;19.60;99.90
15638;DHT22;26604;53.596;10.042;2023-04-24T00:10:58;19.60;99.90
15638;DHT22;26604;53.596;10.042;2023-04-24T00:13:25;19.60;99.90
15638;DHT22;26604;53.596;10.042;2023-04-24T00:15:55;19.60;99.90
15638;DHT22;26604;53.596;10.042;2023-04-24T00:18:21;19.60;99.90
15638;DHT22;26604;53.596;10.042;2023-04-24T00:20:48;19.60;99.90
15638;DHT22;26604;53.596;10.042;2023-04-24T00:23:15;19.60;99.90
15638;DHT22;26604;53.596;10.042;2023-04-24T00:25:41;19.60;99.90
15638;DHT22;26604;53.596;10.042;2023-04-24T00:28:08;19.60;99.90
15638;DHT22;26604;53.596;10.042;2023-04-24T00:30:35;19.60;99.90
15638;DHT22;26604;53.596;10.042;2023-04-24T00:33:03;19.60;99.90
15638;DHT22;26604;53.596;10.042;2023-04-24T00:35:29;19.60;99.90
15638;DHT22;26604;53.596;10.042;2023-04-24T00:37:56;19.60;99.90
15638;DHT22;26604;53.596;10.042;2023-04-24T00:40:22;19.60;99.90
15638;DHT22;26604;53.596;10.042;2023-04-24T00:42:49;19.60;99.90
15638;DHT22;26604;53.596;10.042;2023-04-24T00:45:16;19.60;99.90
15638;DHT22;26604;53.596;10.042;2023-04-24T00:47:43;19.60;99.90
15638;DHT22;26604;53.596;10.042;2023-04-24T00:50:11;19.60;99.90
15638;DHT22;26604;53.596;10.042;2023-04-24T00:52:38;19.70;99.90
15638;DHT22;26604;53.596;10.042;2023-04-24T00:55:06;19.60;99.90
15638;DHT22;26604;53.596;10.042;2023-04-24T00:57:33;19.60;99.90
15638;DHT22;26604;53.596;10.042;2023-04-24T01:00:00;19.60;99.90
15638;DHT22;26604;53.596;10.042;2023-04-24T01:02:28;19.70;99.90
15638;DHT22;26604;53.596;10.042;2023-04-24T01:04:55;19.60;99.90
15638;DHT22;26604;53.596;10.042;2023-04-24T01:07:23;19.60;99.90
15638;DHT22;26604;53.596;10.042;2023-04-24T01:09:50;19.60;99.90
15638;DHT22;26604;53.596;10.042;2023-04-24T01:12:17;19.60;99.90
15638;DHT22;26604;53.596;10.042;2023-04-24T01:14:44;19.60;99.90
15638;DHT22;26604;53.596;10.042;2023-04-24T01:17:11;19.60;99.90
15638;DHT22;26604;53.596;10.042;2023-04-24T01:19:37;19.60;99.90
15638;DHT22;26604;53.596;10.042;2023-04-24T01:22:10;19.60;99.90
15638;DHT22;26604;53.596;10.042;2023-04-24T01:24:37;19.60;99.90
15638;DHT22;26604;53.596;10.042;2023-04-24T01:27:04;19.60;99.90
15638;DHT22;26604;53.596;10.042;2023-04-24T01:29:30;19.60;99.90
15638;DHT22;26604;53.596;10.042;2023-04-24T01:31:57;19.60;99.90
15638;DHT22;26604;53.596;10.042;2023-04-24T01:34:24;19.60;99.90
15638;DHT22;26604;53.596;10.042;2023-04-24T01:36:50;19.60;99.90
15638;DHT22;26604;53.596;10.042;2023-04-24T01:39:18;19.60;99.90
15638;DHT22;26604;53.596;10.042;2023-04-24T01:41:48;19.60;99.90
15638;DHT22;26604;53.596;10.042;2023-04-24T01:44:15;19.60;99.90
15638;DHT22;26604;53.596;10.042;2023-04-24T01:46:42;19.60;99.90
15638;DHT22;26604;53.596;10.042;2023-04-24T01:49:09;19.60;99.90
15638;DHT22;26604;53.596;10.042;2023-04-24T01:51:36;19.60;99.90
15638;DHT22;26604;53.596;10.042;2023-04-24T01:54:03;19.60;99.90
15638;DHT22;26604;53.596;10.042;2023-04-24T01:56:32;19.60;99.90
15638;DHT22;26604;53.596;10.042;2023-04-24T01:59:00;19.60;99.90
15638;DHT22;26604;53.596;10.042;2023-04-24T02:01:27;19.60;99.90
15638;DHT22;26604;53.596;10.042;2023-04-24T02:03:53;19.60;99.90
15638;DHT22;26604;53.596;10.042;2023-04-24T02:06:20;19.60;99.90
15638;DHT22;26604;53.596;10.042;2023-04-24T02:08:47;19.60;99.90
15638;DHT22;26604;53.596;10.042;2023-04-24T02:11:14;19.60;99.90
15638;DHT22;26604;53.596;10.042;2023-04-24T02:13:42;19.60;99.90
15638;DHT22;26604;53.596;10.042;2023-04-24T02:16:08;19.60;99.90
15638;DHT22;26604;53.596;10.042;2023-04-24T02:18:35;19.60;99.90
15638;DHT22;26604;53.596;10.042;2023-04-24T02:21:02;19.60;99.90
15638;DHT22;26604;53.596;10.042;2023-04-24T02:23:28;19.60;99.90
15638;DHT22;26604;53.596;10.042;2023-04-24T02:25:55;19.50;99.90
15638;DHT22;26604;53.596;10.042;2023-04-24T02:28:22;19.60;99.90
15638;DHT22;26604;53.596;10.042;2023-04-24T02:30:51;19.60;99.90
15638;DHT22;26604;53.596;10.042;2023-04-24T02:33:17;19.50;99.90
15638;DHT22;26604;53.596;10.042;2023-04-24T02:35:44;19.60;99.90
15638;DHT22;26604;53.596;10.042;2023-04-24T02:38:11;19.50;99.90
15638;DHT22;26604;53.596;10.042;2023-04-24T02:40:37;19.50;99.90
15638;DHT22;26604;53.596;10.042;2023-04-24T02:43:04;19.60;99.90
15638;DHT22;26604;53.596;10.042;2023-04-24T02:45:30;19.60;99.90
15638;DHT22;26604;53.596;10.042;2023-04-24T02:48:01;19.60;99.90
15638;DHT22;26604;53.596;10.042;2023-04-24T02:50:27;19.60;99.90
15638;DHT22;26604;53.596;10.042;2023-04-24T02:52:54;19.50;99.90
15638;DHT22;26604;53.596;10.042;2023-04-24T02:55:21;19.60;99.90
15638;DHT22;26604;53.596;10.042;2023-04-24T02:57:47;19.50;99.90
15638;DHT22;26604;53.596;10.042;2023-04-24T03:00:14;19.50;99.90
15638;DHT22;26604;53.596;10.042;2023-04-24T03:02:41;19.50;99.90
15638;DHT22;26604;53.596;10.042;2023-04-24T03:05:09;19.50;99.90
15638;DHT22;26604;53.596;10.042;2023-04-24T03:07:37;19.50;99.90
15638;DHT22;26604;53.596;10.042;2023-04-24T03:10:04;19.50;99.90
15638;DHT22;26604;53.596;10.042;2023-04-24T03:12:31;19.50;99.90
15638;DHT22;26604;53.596;10.042;2023-04-24T03:14:58;19.50;99.90
15638;DHT22;26604;53.596;10.042;2023-04-24T03:17:24;19.50;99.90
15638;DHT22;26604;53.596;10.042;2023-04-24T03:19:51;19.50;99.90
15638;DHT22;26604;53.596;10.042;2023-04-24T03:22:19;19.50;99.90
15638;DHT22;26604;53.596;10.042;2023-04-24T03:24:46;19.50;99.90
15638;DHT22;26604;53.596;10.042;2023-04-24T03:27:12;19.50;99.90
15638;DHT22;26604;53.596;10.042;2023-04-24T03:29:39;19.50;99.90
15638;DHT22;26604;53.596;10.042;2023-04-24T03:32:06;19.50;99.90
15638;DHT22;26604;53.596;10.042;2023-04-24T03:34:32;19.50;99.90
15638;DHT22;26604;53.596;10.042;2023-04-24T03:36:59;19.50;99.90
15638;DHT22;26604;53.596;10.042;2023-04-24T03:39:27;19.50;99.90
15638;DHT22;26604;53.596;10.042;2023-04-24T03:41:54;19.50;99.90
15638;DHT22;26604;53.596;10.042;2023-04-24T03:44:21;19.50;99.90
15638;DHT22;26604;53.596;10.042;2023-04-24T03:46:47;19.50;99.90
15638;DHT22;26604;53.596;10.042;2023-04-24T03:49:14;19.50;99.90
15638;DHT22;26604;53.596;10.042;2023-04-24T03:51:41;19.50;99.90
15638;DHT22;26604;53.596;10.042;2023-04-24T03:54:07;19.50;99.90
15638;DHT22;26604;53.596;10.042;2023-04-24T03:56:35;19.50;99.90
15638;DHT22;26604;53.596;10.042;2023-04-24T03:59:02;19.50;99.90
15638;DHT22;26604;53.596;10.042;2023-04-24T04:01:28;19.50;99.90
15638;DHT22;26604;53.596;10.042;2023-04-24T04:03:56;19.50;99.90
15638;DHT22;26604;53.596;10.042;2023-04-24T04:06:22;19.50;99.90
15638;DHT22;26604;53.596;10.042;2023-04-24T04:08:49;19.50;99.90
15638;DHT22;26604;53.596;10.042;2023-04-24T04:11:15;19.50;99.90
15638;DHT22;26604;53.596;10.042;2023-04-24T04:13:43;19.50;99.90
15638;DHT22;26604;53.596;10.042;2023-04-24T04:16:10;19.50;99.90
15638;DHT22;26604;53.596;10.042;2023-04-24T04:18:37;19.50;99.90
15638;DHT22;26604;53.596;10.042;2023-04-24T04:21:04;19.50;99.90
15638;DHT22;26604;53.596;10.042;2023-04-24T04:23:31;19.50;99.90
15638;DHT22;26604;53.596;10.042;2023-04-24T04:25:58;19.50;99.90
15638;DHT22;26604;53.596;10.042;2023-04-24T04:28:25;19.50;99.90
15638;DHT22;26604;53.596;10.042;2023-04-24T04:30:53;19.40;99.90
15638;DHT22;26604;53.596;10.042;2023-04-24T04:33:20;19.40;99.90
15638;DHT22;26604;53.596;10.042;2023-04-24T04:35:47;19.40;99.90
15638;DHT22;26604;53.596;10.042;2023-04-24T04:38:15;19.40;99.90
15638;DHT22;26604;53.596;10.042;2023-04-24T04:40:42;19.40;99.90
15638;DHT22;26604;53.596;10.042;2023-04-24T04:43:08;19.40;99.90
15638;DHT22;26604;53.596;10.042;2023-04-24T04:45:35;19.40;99.90
15638;DHT22;26604;53.596;10.042;2023-04-24T04:48:05;19.50;99.90
15638;DHT22;26604;53.596;10.042;2023-04-24T04:50:34;19.50;99.90
15638;DHT22;26604;53.596;10.042;2023-04-24T04:53:00;19.50;99.90
15638;DHT22;26604;53.596;10.042;2023-04-24T04:55:27;19.60;99.90
15638;DHT22;26604;53.596;10.042;2023-04-24T04:57:54;19.60;99.90
15638;DHT22;26604;53.596;10.042;2023-04-24T05:00:22;19.60;99.90
15638;DHT22;26604;53.596;10.042;2023-04-24T05:02:50;19.60;99.90
15638;DHT22;26604;53.596;10.042;2023-04-24T05:05:18;19.60;99.90
15638;DHT22;26604;53.596;10.042;2023-04-24T05:07:45;19.60;99.90
15638;DHT22;26604;53.596;10.042;2023-04-24T05:10:12;19.60;99.90
15638;DHT22;26604;53.596;10.042;2023-04-24T05:12:38;19.60;99.90
15638;DHT22;26604;53.596;10.042;2023-04-24T05:15:05;19.60;99.90
15638;DHT22;26604;53.596;10.042;2023-04-24T05:17:32;19.60;99.90
15638;DHT22;26604;53.596;10.042;2023-04-24T05:19:59;19.60;99.90
15638;DHT22;26604;53.596;10.042;2023-04-24T05:22:27;19.60;99.90
15638;DHT22;26604;53.596;10.042;2023-04-24T05:24:53;19.60;99.90
15638;DHT22;26604;53.596;10.042;2023-04-24T05:27:20;19.60;99.90
15638;DHT22;26604;53.596;10.042;2023-04-24T05:29:47;19.60;99.90
15638;DHT22;26604;53.596;10.042;2023-04-24T05:32:14;19.60;99.90
15638;DHT22;26604;53.596;10.042;2023-04-24T05:34:40;19.60;99.90
15638;DHT22;26604;53.596;10.042;2023-04-24T05:37:07;19.60;99.90
15638;DHT22;26604;53.596;10.042;2023-04-24T05:39:36;19.70;99.90
15638;DHT22;26604;53.596;10.042;2023-04-24T05:42:03;19.60;99.90
15638;DHT22;26604;53.596;10.042;2023-04-24T05:44:30;19.70;99.90
15638;DHT22;26604;53.596;10.042;2023-04-24T05:46:57;19.70;99.90
15638;DHT22;26604;53.596;10.042;2023-04-24T05:49:24;19.60;99.90
15638;DHT22;26604;53.596;10.042;2023-04-24T05:51:50;19.60;99.90
15638;DHT22;26604;53.596;10.042;2023-04-24T05:54:17;19.60;99.90
15638;DHT22;26604;53.596;10.042;2023-04-24T05:56:45;19.60;99.90
15638;DHT22;26604;53.596;10.042;2023-04-24T05:59:11;19.70;99.90
15638;DHT22;26604;53.596;10.042;2023-04-24T06:01:38;19.70;99.90
15638;DHT22;26604;53.596;10.042;2023-04-24T06:04:05;19.60;99.90
15638;DHT22;26604;53.596;10.042;2023-04-24T06:06:33;19.60;99.90
15638;DHT22;26604;53.596;10.042;2023-04-24T06:08:59;19.70;99.90
15638;DHT22;26604;53.596;10.042;2023-04-24T06:11:26;19.70;99.90
15638;DHT22;26604;53.596;10.042;2023-04-24T06:13:54;19.70;99.90
15638;DHT22;26604;53.596;10.042;2023-04-24T06:16:20;19.70;99.90
15638;DHT22;26604;53.596;10.042;2023-04-24T06:18:47;19.70;99.90
15638;DHT22;26604;53.596;10.042;2023-04-24T06:21:15;19.70;99.90
15638;DHT22;26604;53.596;10.042;2023-04-24T06:23:42;19.70;99.90
15638;DHT22;26604;53.596;10.042;2023-04-24T06:26:09;19.70;99.90
15638;DHT22;26604;53.596;10.042;2023-04-24T06:28:36;19.70;99.90
15638;DHT22;26604;53.596;10.042;2023-04-24T06:31:04;19.80;99.90
15638;DHT22;26604;53.596;10.042;2023-04-24T06:33:30;19.80;99.90
15638;DHT22;26604;53.596;10.042;2023-04-24T06:35:57;19.80;99.90
15638;DHT22;26604;53.596;10.042;2023-04-24T06:38:24;19.80;99.90
15638;DHT22;26604;53.596;10.042;2023-04-24T06:40:50;19.80;99.90
15638;DHT22;26604;53.596;10.042;2023-04-24T06:43:17;19.70;99.90
15638;DHT22;26604;53.596;10.042;2023-04-24T06:45:44;19.80;99.90
15638;DHT22;26604;53.596;10.042;2023-04-24T06:48:13;19.70;99.90
15638;DHT22;26604;53.596;10.042;2023-04-24T06:50:40;19.70;99.90
15638;DHT22;26604;53.596;10.042;2023-04-24T06:53:07;19.80;99.90
15638;DHT22;26604;53.596;10.042;2023-04-24T06:55:36;19.80;99.90
15638;DHT22;26604;53.596;10.042;2023-04-24T06:58:03;19.70;99.90
15638;DHT22;26604;53.596;10.042;2023-04-24T07:00:31;19.80;99.90
15638;DHT22;26604;53.596;10.042;2023-04-24T07:02:58;19.70;99.90
15638;DHT22;26604;53.596;10.042;2023-04-24T07:05:26;19.80;99.90
15638;DHT22;26604;53.596;10.042;2023-04-24T07:07:53;19.80;99.90
15638;DHT22;26604;53.596;10.042;2023-04-24T07:10:20;19.80;99.90
15638;DHT22;26604;53.596;10.042;2023-04-24T07:12:46;19.80;99.90
15638;DHT22;26604;53.596;10.042;2023-04-24T07:15:13;19.80;99.90
15638;DHT22;26604;53.596;10.042;2023-04-24T07:17:40;19.80;99.90
15638;DHT22;26604;53.596;10.042;2023-04-24T07:20:09;19.90;99.90
15638;DHT22;26604;53.596;10.042;2023-04-24T07:22:37;19.90;99.90
15638;DHT22;26604;53.596;10.042;2023-04-24T07:25:04;19.90;99.90
15638;DHT22;26604;53.596;10.042;2023-04-24T07:27:31;19.90;99.90
15638;DHT22;26604;53.596;10.042;2023-04-24T07:29:58;20.00;99.90
15638;DHT22;26604;53.596;10.042;2023-04-24T07:32:25;20.00;99.90
15638;DHT22;26604;53.596;10.042;2023-04-24T07:34:51;20.00;99.90
15638;DHT22;26604;53.596;10.042;2023-04-24T07:37:18;20.10;99.90
15638;DHT22;26604;53.596;10.042;2023-04-24T07:39:46;20.10;99.90
15638;DHT22;26604;53.596;10.042;2023-04-24T07:42:13;20.10;99.90
15638;DHT22;26604;53.596;10.042;2023-04-24T07:44:40;20.10;99.90
15638;DHT22;26604;53.596;10.042;2023-04-24T07:47:06;20.10;99.90
15638;DHT22;26604;53.596;10.042;2023-04-24T07:49:34;20.20;99.90
15638;DHT22;26604;53.596;10.042;2023-04-24T07:52:00;20.20;99.90
15638;DHT22;26604;53.596;10.042;2023-04-24T07:54:27;20.20;99.90
15638;DHT22;26604;53.596;10.042;2023-04-24T07:56:56;20.20;99.90
15638;DHT22;26604;53.596;10.042;2023-04-24T07:59:23;20.20;99.90
15638;DHT22;26604;53.596;10.042;2023-04-24T08:01:49;20.20;99.90
15638;DHT22;26604;53.596;10.042;2023-04-24T08:04:16;20.20;99.90
15638;DHT22;26604;53.596;10.042;2023-04-24T08:06:44;20.20;99.90
15638;DHT22;26604;53.596;10.042;2023-04-24T08:09:10;20.30;99.90
15638;DHT22;26604;53.596;10.042;2023-04-24T08:11:37;20.30;99.90
15638;DHT22;26604;53.596;10.042;2023-04-24T08:14:05;20.40;99.90
15638;DHT22;26604;53.596;10.042;2023-04-24T08:16:32;20.40;99.90
15638;DHT22;26604;53.596;10.042;2023-04-24T08:18:59;20.50;99.90
15638;DHT22;26604;53.596;10.042;2023-04-24T08:21:25;20.50;99.90
15638;DHT22;26604;53.596;10.042;2023-04-24T08:23:52;20.50;99.90
15638;DHT22;26604;53.596;10.042;2023-04-24T08:26:19;20.60;99.90
15638;DHT22;26604;53.596;10.042;2023-04-24T08:28:45;20.60;99.90
15638;DHT22;26604;53.596;10.042;2023-04-24T08:31:13;20.70;99.90
15638;DHT22;26604;53.596;10.042;2023-04-24T08:33:40;20.70;99.90
15638;DHT22;26604;53.596;10.042;2023-04-24T08:36:09;20.60;99.90
15638;DHT22;26604;53.596;10.042;2023-04-24T08:38:35;20.50;99.90
15638;DHT22;26604;53.596;10.042;2023-04-24T08:41:02;20.40;99.90
15638;DHT22;26604;53.596;10.042;2023-04-24T08:43:29;20.40;99.90
15638;DHT22;26604;53.596;10.042;2023-04-24T08:45:59;20.30;99.90
15638;DHT22;26604;53.596;10.042;2023-04-24T08:48:28;20.20;99.90
15638;DHT22;26604;53.596;10.042;2023-04-24T08:50:55;20.20;99.90
15638;DHT22;26604;53.596;10.042;2023-04-24T08:53:22;20.20;99.90
15638;DHT22;26604;53.596;10.042;2023-04-24T08:55:51;20.10;99.90
15638;DHT22;26604;53.596;10.042;2023-04-24T08:58:18;20.10;99.90
15638;DHT22;26604;53.596;10.042;2023-04-24T09:00:45;20.10;99.90
15638;DHT22;26604;53.596;10.042;2023-04-24T09:03:13;20.10;99.90
15638;DHT22;26604;53.596;10.042;2023-04-24T09:05:41;20.00;99.90
15638;DHT22;26604;53.596;10.042;2023-04-24T09:08:11;20.00;99.90
15638;DHT22;26604;53.596;10.042;2023-04-24T09:10:39;20.00;99.90
15638;DHT22;26604;53.596;10.042;2023-04-24T09:13:06;20.00;99.90
15638;DHT22;26604;53.596;10.042;2023-04-24T09:15:34;20.00;99.90
15638;DHT22;26604;53.596;10.042;2023-04-24T09:18:01;20.00;99.90
15638;DHT22;26604;53.596;10.042;2023-04-24T09:20:28;20.00;99.90
15638;DHT22;26604;53.596;10.042;2023-04-24T09:22:56;20.10;99.90
15638;DHT22;26604;53.596;10.042;2023-04-24T09:25:23;20.10;99.90
15638;DHT22;26604;53.596;10.042;2023-04-24T09:27:53;20.00;99.90
15638;DHT22;26604;53.596;10.042;2023-04-24T09:30:21;20.00;99.90
15638;DHT22;26604;53.596;10.042;2023-04-24T09:32:48;20.10;99.90
15638;DHT22;26604;53.596;10.042;2023-04-24T09:35:15;20.10;99.90
15638;DHT22;26604;53.596;10.042;2023-04-24T09:37:42;20.00;99.90
15638;DHT22;26604;53.596;10.042;2023-04-24T09:40:11;20.00;99.90
15638;DHT22;26604;53.596;10.042;2023-04-24T09:42:38;20.00;99.90
15638;DHT22;26604;53.596;10.042;2023-04-24T09:45:08;20.00;99.90
15638;DHT22;26604;53.596;10.042;2023-04-24T09:47:35;20.00;99.90
15638;DHT22;26604;53.596;10.042;2023-04-24T09:50:08;20.00;99.90
15638;DHT22;26604;53.596;10.042;2023-04-24T09:52:35;20.00;99.90
15638;DHT22;26604;53.596;10.042;2023-04-24T09:55:02;20.00;99.90
15638;DHT22;26604;53.596;10.042;2023-04-24T09:57:30;20.00;99.90
15638;DHT22;26604;53.596;10.042;2023-04-24T09:59:57;20.00;99.90
15638;DHT22;26604;53.596;10.042;2023-04-24T10:02:24;20.00;99.90
15638;DHT22;26604;53.596;10.042;2023-04-24T10:04:54;20.00;99.90
15638;DHT22;26604;53.596;10.042;2023-04-24T10:07:20;20.00;99.90
15638;DHT22;26604;53.596;10.042;2023-04-24T10:09:47;20.00;99.90
15638;DHT22;26604;53.596;10.042;2023-04-24T10:12:14;19.90;99.90
15638;DHT22;26604;53.596;10.042;2023-04-24T10:14:42;19.90;99.90
15638;DHT22;26604;53.596;10.042;2023-04-24T10:17:10;19.90;99.90
15638;DHT22;26604;53.596;10.042;2023-04-24T10:19:37;19.90;99.90
15638;DHT22;26604;53.596;10.042;2023-04-24T10:22:04;19.90;99.90
15638;DHT22;26604;53.596;10.042;2023-04-24T10:24:31;19.90;99.90
15638;DHT22;26604;53.596;10.042;2023-04-24T10:27:00;19.90;99.90
15638;DHT22;26604;53.596;10.042;2023-04-24T10:29:27;19.90;99.90
15638;DHT22;26604;53.596;10.042;2023-04-24T10:31:56;20.00;99.90
15638;DHT22;26604;53.596;10.042;2023-04-24T10:34:23;19.90;99.90
15638;DHT22;26604;53.596;10.042;2023-04-24T10:36:50;20.00;99.90
15638;DHT22;26604;53.596;10.042;2023-04-24T10:39:17;20.00;99.90
15638;DHT22;26604;53.596;10.042;2023-04-24T10:41:45;20.00;99.90
15638;DHT22;26604;53.596;10.042;2023-04-24T10:44:13;20.00;99.90
15638;DHT22;26604;53.596;10.042;2023-04-24T10:46:42;20.00;99.90
15638;DHT22;26604;53.596;10.042;2023-04-24T10:49:10;20.00;99.90
15638;DHT22;26604;53.596;10.042;2023-04-24T10:51:47;20.00;99.90
15638;DHT22;26604;53.596;10.042;2023-04-24T10:54:24;20.00;99.90
15638;DHT22;26604;53.596;10.042;2023-04-24T10:56:51;20.00;99.90
15638;DHT22;26604;53.596;10.042;2023-04-24T10:59:23;20.00;99.90
15638;DHT22;26604;53.596;10.042;2023-04-24T11:01:52;20.00;99.90
15638;DHT22;26604;53.596;10.042;2023-04-24T11:04:28;20.00;99.90
15638;DHT22;26604;53.596;10.042;2023-04-24T11:06:55;20.00;99.90
15638;DHT22;26604;53.596;10.042;2023-04-24T11:09:22;20.00;99.90
15638;DHT22;26604;53.596;10.042;2023-04-24T11:11:48;19.90;99.90
15638;DHT22;26604;53.596;10.042;2023-04-24T11:14:15;20.00;99.90
15638;DHT22;26604;53.596;10.042;2023-04-24T11:16:42;20.00;99.90
15638;DHT22;26604;53.596;10.042;2023-04-24T11:19:10;20.00;99.90
15638;DHT22;26604;53.596;10.042;2023-04-24T11:21:45;20.00;99.90
15638;DHT22;26604;53.596;10.042;2023-04-24T11:24:29;20.10;99.90
15638;DHT22;26604;53.596;10.042;2023-04-24T11:26:56;20.10;99.90
15638;DHT22;26604;53.596;10.042;2023-04-24T11:29:38;20.10;99.90
15638;DHT22;26604;53.596;10.042;2023-04-24T11:32:13;20.10;99.90
15638;DHT22;26604;53.596;10.042;2023-04-24T11:34:41;20.10;99.90
15638;DHT22;26604;53.596;10.042;2023-04-24T11:37:09;20.00;99.90
15638;DHT22;26604;53.596;10.042;2023-04-24T11:39:36;20.00;99.90
15638;DHT22;26604;53.596;10.042;2023-04-24T11:42:03;20.10;99.90
15638;DHT22;26604;53.596;10.042;2023-04-24T11:44:31;20.10;99.90
15638;DHT22;26604;53.596;10.042;2023-04-24T11:46:59;20.40;99.90
15638;DHT22;26604;53.596;10.042;2023-04-24T11:49:26;20.70;99.90
15638;DHT22;26604;53.596;10.042;2023-04-24T11:51:54;21.00;99.90
15638;DHT22;26604;53.596;10.042;2023-04-24T11:54:22;21.30;99.90
15638;DHT22;26604;53.596;10.042;2023-04-24T11:56:49;21.40;99.90
15638;DHT22;26604;53.596;10.042;2023-04-24T11:59:16;21.60;99.90
15638;DHT22;26604;53.596;10.042;2023-04-24T12:01:43;21.60;99.90
15638;DHT22;26604;53.596;10.042;2023-04-24T12:04:09;21.60;99.90
15638;DHT22;26604;53.596;10.042;2023-04-24T12:06:36;21.60;99.90
15638;DHT22;26604;53.596;10.042;2023-04-24T12:09:03;21.60;99.90
15638;DHT22;26604;53.596;10.042;2023-04-24T12:11:31;21.60;99.90
15638;DHT22;26604;53.596;10.042;2023-04-24T12:13:57;21.60;99.90
15638;DHT22;26604;53.596;10.042;2023-04-24T12:16:35;21.60;99.90
15638;DHT22;26604;53.596;10.042;2023-04-24T12:19:02;21.60;99.90
15638;DHT22;26604;53.596;10.042;2023-04-24T12:21:28;21.60;99.90
15638;DHT22;26604;53.596;10.042;2023-04-24T12:23:57;21.70;99.90
15638;DHT22;26604;53.596;10.042;2023-04-24T12:26:23;21.70;99.90
15638;DHT22;26604;53.596;10.042;2023-04-24T12:28:52;21.80;99.90
15638;DHT22;26604;53.596;10.042;2023-04-24T12:31:20;21.80;99.90
15638;DHT22;26604;53.596;10.042;2023-04-24T12:33:47;21.70;99.90
15638;DHT22;26604;53.596;10.042;2023-04-24T12:36:13;21.70;99.90
15638;DHT22;26604;53.596;10.042;2023-04-24T12:38:42;21.70;99.90
15638;DHT22;26604;53.596;10.042;2023-04-24T12:41:12;21.60;99.90
15638;DHT22;26604;53.596;10.042;2023-04-24T12:43:50;21.60;99.90
15638;DHT22;26604;53.596;10.042;2023-04-24T12:46:18;21.60;99.90
15638;DHT22;26604;53.596;10.042;2023-04-24T12:48:44;21.70;99.90
15638;DHT22;26604;53.596;10.042;2023-04-24T12:51:11;21.70;99.90
15638;DHT22;26604;53.596;10.042;2023-04-24T12:53:38;21.70;99.90
15638;DHT22;26604;53.596;10.042;2023-04-24T12:56:04;21.70;99.90
15638;DHT22;26604;53.596;10.042;2023-04-24T12:58:31;21.70;99.90
15638;DHT22;26604;53.596;10.042;2023-04-24T13:00:57;21.70;99.90
15638;DHT22;26604;53.596;10.042;2023-04-24T13:03:27;21.60;99.90
15638;DHT22;26604;53.596;10.042;2023-04-24T13:05:54;21.60;99.90
15638;DHT22;26604;53.596;10.042;2023-04-24T13:08:20;21.60;99.90
15638;DHT22;26604;53.596;10.042;2023-04-24T13:10:47;21.50;99.90
15638;DHT22;26604;53.596;10.042;2023-04-24T13:13:14;21.50;99.90
15638;DHT22;26604;53.596;10.042;2023-04-24T13:15:41;21.40;99.90
15638;DHT22;26604;53.596;10.042;2023-04-24T13:18:08;21.30;99.90
15638;DHT22;26604;53.596;10.042;2023-04-24T13:20:36;21.30;99.90
15638;DHT22;26604;53.596;10.042;2023-04-24T13:23:02;21.30;99.90
15638;DHT22;26604;53.596;10.042;2023-04-24T13:25:30;21.20;99.90
15638;DHT22;26604;53.596;10.042;2023-04-24T13:27:56;21.20;99.90
15638;DHT22;26604;53.596;10.042;2023-04-24T13:30:23;21.20;99.90
15638;DHT22;26604;53.596;10.042;2023-04-24T13:32:50;21.20;99.90
15638;DHT22;26604;53.596;10.042;2023-04-24T13:35:16;21.20;99.90
15638;DHT22;26604;53.596;10.042;2023-04-24T13:37:44;21.20;99.90
15638;DHT22;26604;53.596;10.042;2023-04-24T13:40:11;21.20;99.90
15638;DHT22;26604;53.596;10.042;2023-04-24T13:42:38;21.10;99.90
15638;DHT22;26604;53.596;10.042;2023-04-24T13:45:05;21.10;99.90
15638;DHT22;26604;53.596;10.042;2023-04-24T13:47:32;21.10;99.90
15638;DHT22;26604;53.596;10.042;2023-04-24T13:49:58;21.10;99.90
15638;DHT22;26604;53.596;10.042;2023-04-24T13:52:25;21.10;99.90
15638;DHT22;26604;53.596;10.042;2023-04-24T13:54:53;21.10;99.90
15638;DHT22;26604;53.596;10.042;2023-04-24T13:57:20;21.10;99.90
15638;DHT22;26604;53.596;10.042;2023-04-24T13:59:47;21.10;99.90
15638;DHT22;26604;53.596;10.042;2023-04-24T14:02:14;21.10;99.90
15638;DHT22;26604;53.596;10.042;2023-04-24T14:04:40;21.10;99.90
15638;DHT22;26604;53.596;10.042;2023-04-24T14:07:07;21.10;99.90
15638;DHT22;26604;53.596;10.042;2023-04-24T14:09:34;21.20;99.90
15638;DHT22;26604;53.596;10.042;2023-04-24T14:12:02;21.20;99.90
15638;DHT22;26604;53.596;10.042;2023-04-24T14:14:29;21.20;99.90
15638;DHT22;26604;53.596;10.042;2023-04-24T14:16:56;21.20;99.90
15638;DHT22;26604;53.596;10.042;2023-04-24T14:19:23;21.20;99.90
15638;DHT22;26604;53.596;10.042;2023-04-24T14:21:50;21.20;99.90
15638;DHT22;26604;53.596;10.042;2023-04-24T14:24:16;21.20;99.90
15638;DHT22;26604;53.596;10.042;2023-04-24T14:26:43;21.20;99.90
15638;DHT22;26604;53.596;10.042;2023-04-24T14:29:11;21.10;99.90
15638;DHT22;26604;53.596;10.042;2023-04-24T14:31:38;20.90;99.90
15638;DHT22;26604;53.596;10.042;2023-04-24T14:34:04;20.70;99.90
15638;DHT22;26604;53.596;10.042;2023-04-24T14:36:31;20.60;99.90
15638;DHT22;26604;53.596;10.042;2023-04-24T14:38:58;20.40;99.90
15638;DHT22;26604;53.596;10.042;2023-04-24T14:41:24;20.40;99.90
15638;DHT22;26604;53.596;10.042;2023-04-24T14:43:51;20.30;99.90
15638;DHT22;26604;53.596;10.042;2023-04-24T14:46:19;20.20;99.90
15638;DHT22;26604;53.596;10.042;2023-04-24T14:48:46;20.10;99.90
15638;DHT22;26604;53.596;10.042;2023-04-24T14:51:13;20.00;99.90
15638;DHT22;26604;53.596;10.042;2023-04-24T14:53:39;20.00;99.90
15638;DHT22;26604;53.596;10.042;2023-04-24T14:56:06;19.90;99.90
15638;DHT22;26604;53.596;10.042;2023-04-24T14:58:33;19.90;99.90
15638;DHT22;26604;53.596;10.042;2023-04-24T15:01:00;19.80;99.90
15638;DHT22;26604;53.596;10.042;2023-04-24T15:03:28;19.80;99.90
15638;DHT22;26604;53.596;10.042;2023-04-24T15:05:57;19.80;99.90
15638;DHT22;26604;53.596;10.042;2023-04-24T15:08:24;19.80;99.90
15638;DHT22;26604;53.596;10.042;2023-04-24T15:10:51;19.70;99.90
15638;DHT22;26604;53.596;10.042;2023-04-24T15:13:17;19.70;99.90
15638;DHT22;26604;53.596;10.042;2023-04-24T15:15:45;19.70;99.90